Time;durP1;ratioP1;P1;durP2;ratioP2;P2;SDS_P1;SDS_P2;PMS_P1;PMS_P2;Temp;Humidity;BMP_temperature;BMP_pressure;BME280_temperature;BME280_humidity;BME280_pressure;Samples;Min_cycle;Max_cycle;Signal;HPM_P1;HPM_P2
2023/02/23 00:02:21;;;;;;;;;;;5.80;99.90;;;;;;4941940;29;19927;-67
2023/02/23 00:04:48;;;;;;;;;;;5.80;99.90;;;;;;4938329;28;19933;-66
2023/02/23 00:07:20;;;;;;;;;;;5.70;99.90;;;;;;4944670;29;19930;-66
2023/02/23 00:09:52;;;;;;;;;;;5.80;99.90;;;;;;4936327;29;20426;-67
2023/02/23 00:12:25;;;;;;;;;;;5.80;99.90;;;;;;4938329;29;19981;-66
2023/02/23 00:14:58;;;;;;;;;;;5.70;99.90;;;;;;4942510;29;19930;-66
2023/02/23 00:17:25;;;;;;;;;;;5.70;99.90;;;;;;4936363;29;20444;-66
2023/02/23 00:19:57;;;;;;;;;;;5.80;99.90;;;;;;4945100;29;19964;-66
2023/02/23 00:22:25;;;;;;;;;;;5.80;99.90;;;;;;4942724;29;19926;-66
2023/02/23 00:24:58;;;;;;;;;;;5.80;99.90;;;;;;4943480;29;19930;-66
2023/02/23 00:27:30;;;;;;;;;;;5.80;99.90;;;;;;4926547;29;20430;-66
2023/02/23 00:30:02;;;;;;;;;;;5.80;99.90;;;;;;4942555;29;19930;-66
2023/02/23 00:32:33;;;;;;;;;;;5.80;99.90;;;;;;4936456;29;19931;-66
2023/02/23 00:35:00;;;;;;;;;;;5.80;99.90;;;;;;4946112;29;19933;-66
2023/02/23 00:37:32;;;;;;;;;;;5.80;99.90;;;;;;4942959;29;19933;-67
2023/02/23 00:39:59;;;;;;;;;;;5.80;99.90;;;;;;4945935;29;19930;-66
2023/02/23 00:42:31;;;;;;;;;;;5.80;99.90;;;;;;4939279;29;19933;-66
2023/02/23 00:45:07;;;;;;;;;;;5.80;99.90;;;;;;4941744;29;19934;-66
2023/02/23 00:47:41;;;;;;;;;;;5.80;99.90;;;;;;4945313;29;19981;-66
2023/02/23 00:50:14;;;;;;;;;;;5.80;99.90;;;;;;4939365;29;20415;-65
2023/02/23 00:52:46;;;;;;;;;;;5.80;99.90;;;;;;4946638;29;19926;-66
2023/02/23 00:55:18;;;;;;;;;;;5.80;99.90;;;;;;4942070;29;19927;-65
2023/02/23 00:57:50;;;;;;;;;;;5.80;99.90;;;;;;4927401;29;19931;-66
2023/02/23 01:00:18;;;;;;;;;;;5.90;99.90;;;;;;4944967;29;19931;-66
2023/02/23 01:02:50;;;;;;;;;;;5.90;99.90;;;;;;4940038;29;19934;-66
2023/02/23 01:05:22;;;;;;;;;;;5.90;99.90;;;;;;4928080;29;19927;-66
2023/02/23 01:07:48;;;;;;;;;;;5.90;99.90;;;;;;4945177;28;19926;-66
2023/02/23 01:10:22;;;;;;;;;;;5.80;99.90;;;;;;4951368;29;19954;-66
2023/02/23 01:12:54;;;;;;;;;;;5.80;99.90;;;;;;4940669;28;19927;-66
2023/02/23 01:15:26;;;;;;;;;;;5.80;99.90;;;;;;4946373;29;19927;-66
2023/02/23 01:17:59;;;;;;;;;;;5.80;99.90;;;;;;4947254;29;19984;-66
2023/02/23 01:20:34;;;;;;;;;;;5.80;99.90;;;;;;4940980;29;19933;-66
2023/02/23 01:23:07;;;;;;;;;;;5.70;99.90;;;;;;4950113;29;19934;-65
2023/02/23 01:25:41;;;;;;;;;;;5.70;99.90;;;;;;4933970;29;19931;-66
2023/02/23 01:28:13;;;;;;;;;;;5.70;99.90;;;;;;4926441;29;19934;-66
2023/02/23 01:30:45;;;;;;;;;;;5.70;99.90;;;;;;4946486;28;19927;-66
2023/02/23 01:33:17;;;;;;;;;;;5.70;99.90;;;;;;4946309;29;19933;-66
2023/02/23 01:35:58;;;;;;;;;;;5.70;99.90;;;;;;4943327;29;19932;-66
2023/02/23 01:38:30;;;;;;;;;;;5.70;99.90;;;;;;4944500;29;20344;-66
2023/02/23 01:41:02;;;;;;;;;;;5.70;99.90;;;;;;4946897;29;19931;-66
2023/02/23 01:43:35;;;;;;;;;;;5.70;99.90;;;;;;4939271;29;20478;-65
2023/02/23 01:46:07;;;;;;;;;;;5.70;99.90;;;;;;4929607;28;19934;-66
2023/02/23 01:48:36;;;;;;;;;;;5.70;99.90;;;;;;4940196;29;19927;-65
2023/02/23 01:51:10;;;;;;;;;;;5.80;99.90;;;;;;4945923;29;19930;-65
2023/02/23 01:53:43;;;;;;;;;;;5.90;99.90;;;;;;4946354;29;20349;-66
2023/02/23 01:56:20;;;;;;;;;;;5.90;99.90;;;;;;4934248;29;19978;-66
2023/02/23 01:58:54;;;;;;;;;;;6.00;99.90;;;;;;4941185;29;19933;-65
2023/02/23 02:01:28;;;;;;;;;;;6.00;99.90;;;;;;4943932;29;19930;-66
2023/02/23 02:04:05;;;;;;;;;;;6.00;99.90;;;;;;4946337;29;20344;-66
2023/02/23 02:06:38;;;;;;;;;;;6.00;99.90;;;;;;4939264;29;19935;-66
2023/02/23 02:09:16;;;;;;;;;;;6.00;99.90;;;;;;4942678;29;19934;-65
2023/02/23 02:11:52;;;;;;;;;;;6.00;99.90;;;;;;4937661;29;19935;-65
2023/02/23 02:14:29;;;;;;;;;;;6.00;99.90;;;;;;4941767;29;20555;-65
2023/02/23 02:17:11;;;;;;;;;;;6.00;99.90;;;;;;4946052;28;20364;-65
2023/02/23 02:20:05;;;;;;;;;;;6.00;99.90;;;;;;4943007;29;19953;-65
2023/02/23 02:22:48;;;;;;;;;;;6.00;99.90;;;;;;4946635;29;19988;-65
2023/02/23 02:25:30;;;;;;;;;;;6.00;99.90;;;;;;4944728;29;19982;-64
2023/02/23 02:28:21;;;;;;;;;;;6.00;99.90;;;;;;4936799;29;19984;-65
2023/02/23 02:31:12;;;;;;;;;;;6.00;99.90;;;;;;4928214;29;20356;-66
2023/02/23 02:33:44;;;;;;;;;;;6.00;99.90;;;;;;4939733;29;19934;-65
2023/02/23 02:36:16;;;;;;;;;;;6.00;99.90;;;;;;4940646;29;20308;-65
2023/02/23 02:38:52;;;;;;;;;;;6.00;99.90;;;;;;4945762;29;19931;-64
2023/02/23 02:41:34;;;;;;;;;;;6.00;99.90;;;;;;4930831;29;19926;-65
2023/02/23 02:44:07;;;;;;;;;;;6.00;99.90;;;;;;4945377;29;19938;-65
2023/02/23 02:46:40;;;;;;;;;;;6.00;99.90;;;;;;4942998;29;19934;-65
2023/02/23 02:49:28;;;;;;;;;;;6.00;99.90;;;;;;4946311;29;19938;-65
2023/02/23 02:51:54;;;;;;;;;;;6.00;99.90;;;;;;4937808;29;20138;-65
2023/02/23 02:54:29;;;;;;;;;;;6.00;99.90;;;;;;4943365;29;19982;-65
2023/02/23 02:57:03;;;;;;;;;;;6.00;99.90;;;;;;4923417;29;19930;-64
2023/02/23 04:18:04;;;;;;;;;;;7.10;99.90;;;;;;4941948;29;20392;-65
2023/02/23 04:20:35;;;;;;;;;;;7.10;99.90;;;;;;4953461;28;20312;-64
2023/02/23 04:23:07;;;;;;;;;;;7.10;99.90;;;;;;4949300;29;19930;-65
2023/02/23 04:25:39;;;;;;;;;;;7.10;99.90;;;;;;4945246;29;19927;-65
2023/02/23 04:28:10;;;;;;;;;;;7.00;99.90;;;;;;4947665;29;19926;-65
2023/02/23 04:30:37;;;;;;;;;;;7.00;99.90;;;;;;4933472;29;20396;-64
2023/02/23 04:33:09;;;;;;;;;;;7.00;99.90;;;;;;4940087;29;19935;-64
2023/02/23 04:35:36;;;;;;;;;;;7.00;99.90;;;;;;4942776;29;19927;-64
2023/02/23 04:38:03;;;;;;;;;;;7.00;99.90;;;;;;4933139;29;19934;-65
2023/02/23 04:40:30;;;;;;;;;;;7.00;99.90;;;;;;4939349;29;19958;-65
2023/02/23 04:43:02;;;;;;;;;;;7.00;99.90;;;;;;4939364;29;20135;-64
2023/02/23 04:45:33;;;;;;;;;;;6.90;99.90;;;;;;4935027;29;19954;-65
2023/02/23 04:48:00;;;;;;;;;;;6.90;99.90;;;;;;4946368;29;19931;-64
2023/02/23 04:50:32;;;;;;;;;;;6.90;99.90;;;;;;4945512;29;20636;-65
2023/02/23 04:53:04;;;;;;;;;;;6.90;99.90;;;;;;4943822;29;19926;-65
2023/02/23 04:55:36;;;;;;;;;;;6.90;99.90;;;;;;4941802;29;19930;-65
2023/02/23 04:58:12;;;;;;;;;;;6.90;99.90;;;;;;4939597;29;19927;-65
2023/02/23 05:00:44;;;;;;;;;;;7.00;99.90;;;;;;4937406;29;19926;-65
2023/02/23 05:03:19;;;;;;;;;;;7.00;99.90;;;;;;4939846;29;20293;-64
2023/02/23 05:05:45;;;;;;;;;;;6.90;99.90;;;;;;4939676;29;19926;-65
2023/02/23 05:08:17;;;;;;;;;;;6.90;99.90;;;;;;4940541;29;19935;-65
2023/02/23 05:10:49;;;;;;;;;;;6.90;99.90;;;;;;4943102;29;20303;-66
2023/02/23 05:13:20;;;;;;;;;;;6.90;99.90;;;;;;4946273;29;19930;-65
2023/02/23 05:15:56;;;;;;;;;;;6.90;99.90;;;;;;4936022;28;19930;-65
2023/02/23 05:18:28;;;;;;;;;;;6.80;99.90;;;;;;4946620;29;19935;-65
2023/02/23 05:21:04;;;;;;;;;;;6.80;99.90;;;;;;4940077;29;19931;-65
2023/02/23 05:23:36;;;;;;;;;;;6.80;99.90;;;;;;4948670;28;19927;-65
2023/02/23 05:26:10;;;;;;;;;;;6.80;99.90;;;;;;4939133;29;19934;-65
2023/02/23 05:28:42;;;;;;;;;;;6.80;99.90;;;;;;4939654;29;20383;-66
2023/02/23 05:31:14;;;;;;;;;;;6.70;99.90;;;;;;4943216;29;19930;-65
2023/02/23 05:33:46;;;;;;;;;;;6.70;99.90;;;;;;4942058;28;19927;-65
2023/02/23 05:36:15;;;;;;;;;;;6.70;99.90;;;;;;4951759;29;20307;-65
2023/02/23 05:38:42;;;;;;;;;;;6.70;99.90;;;;;;4940064;29;19934;-65
2023/02/23 05:41:16;;;;;;;;;;;6.60;99.90;;;;;;4944970;29;20387;-65
2023/02/23 05:43:50;;;;;;;;;;;6.60;99.90;;;;;;4944907;29;20379;-64
2023/02/23 05:46:23;;;;;;;;;;;6.70;99.90;;;;;;4948088;29;19931;-65
2023/02/23 05:48:50;;;;;;;;;;;6.60;99.90;;;;;;4945961;29;19936;-65
2023/02/23 05:51:22;;;;;;;;;;;6.60;99.90;;;;;;4943163;29;20347;-65
2023/02/23 05:53:54;;;;;;;;;;;6.60;99.90;;;;;;4938624;29;19981;-65
2023/02/23 05:56:25;;;;;;;;;;;6.60;99.90;;;;;;4945798;29;19934;-65
2023/02/23 05:58:58;;;;;;;;;;;6.60;99.90;;;;;;4946374;29;19933;-66
2023/02/23 06:01:30;;;;;;;;;;;6.60;99.90;;;;;;4940873;28;19931;-66
2023/02/23 06:04:01;;;;;;;;;;;6.60;99.90;;;;;;4941936;29;19982;-65
2023/02/23 06:06:34;;;;;;;;;;;6.50;99.90;;;;;;4940650;29;19931;-66
2023/02/23 06:09:06;;;;;;;;;;;6.60;99.90;;;;;;4938726;29;19958;-67
2023/02/23 06:11:38;;;;;;;;;;;6.50;99.90;;;;;;4943203;29;19927;-64
2023/02/23 06:14:10;;;;;;;;;;;6.60;99.90;;;;;;4944916;29;20628;-65
2023/02/23 06:16:37;;;;;;;;;;;6.50;99.90;;;;;;4937791;29;19978;-67
2023/02/23 06:19:03;;;;;;;;;;;6.60;99.90;;;;;;4945303;29;19935;-65
2023/02/23 06:21:35;;;;;;;;;;;6.50;99.90;;;;;;4947295;28;19950;-65
2023/02/23 06:24:07;;;;;;;;;;;6.50;99.90;;;;;;4937272;29;19935;-65
2023/02/23 06:26:34;;;;;;;;;;;6.60;99.90;;;;;;4940921;29;19927;-66
2023/02/23 06:29:06;;;;;;;;;;;6.50;99.90;;;;;;4943095;29;19933;-65
2023/02/23 06:31:38;;;;;;;;;;;6.60;99.90;;;;;;4940622;28;19931;-65
2023/02/23 06:34:10;;;;;;;;;;;6.60;99.90;;;;;;4941168;29;20296;-66
2023/02/23 06:36:37;;;;;;;;;;;6.60;99.90;;;;;;4941496;29;19974;-65
2023/02/23 06:39:09;;;;;;;;;;;6.60;99.90;;;;;;4937044;29;19930;-66
2023/02/23 06:41:41;;;;;;;;;;;6.60;99.90;;;;;;4946284;29;19998;-66
2023/02/23 06:44:13;;;;;;;;;;;6.60;99.90;;;;;;4938519;29;19930;-66
2023/02/23 06:46:45;;;;;;;;;;;6.60;99.90;;;;;;4941407;28;20384;-65
2023/02/23 06:49:17;;;;;;;;;;;6.60;99.90;;;;;;4942793;29;20332;-66
2023/02/23 06:51:49;;;;;;;;;;;6.60;99.90;;;;;;4950046;29;19931;-66
2023/02/23 06:54:21;;;;;;;;;;;6.70;99.90;;;;;;4937704;29;19930;-66
2023/02/23 06:56:54;;;;;;;;;;;6.70;99.90;;;;;;4941845;29;20316;-66
2023/02/23 06:59:26;;;;;;;;;;;6.70;99.90;;;;;;4948725;29;19930;-66
2023/02/23 07:01:57;;;;;;;;;;;6.70;99.90;;;;;;4941532;29;19931;-66
2023/02/23 07:04:29;;;;;;;;;;;6.80;99.90;;;;;;4938805;29;19930;-65
2023/02/23 07:07:03;;;;;;;;;;;6.80;99.90;;;;;;4944761;29;20207;-65
2023/02/23 07:09:30;;;;;;;;;;;6.80;99.90;;;;;;4941229;29;19926;-66
2023/02/23 07:12:03;;;;;;;;;;;6.80;99.90;;;;;;4940852;29;19939;-66
2023/02/23 07:14:36;;;;;;;;;;;6.80;99.90;;;;;;4943186;29;20307;-66
2023/02/23 07:17:03;;;;;;;;;;;6.80;99.90;;;;;;4938451;29;19958;-65
2023/02/23 07:19:35;;;;;;;;;;;6.80;99.90;;;;;;4940925;29;19935;-65
2023/02/23 07:22:07;;;;;;;;;;;6.80;99.90;;;;;;4942399;29;20266;-65
2023/02/23 07:24:38;;;;;;;;;;;6.80;99.90;;;;;;4948170;29;19985;-65
2023/02/23 07:27:10;;;;;;;;;;;6.90;99.90;;;;;;4940384;28;20343;-64
2023/02/23 07:29:42;;;;;;;;;;;6.90;99.90;;;;;;4944960;29;19937;-65
2023/02/23 07:32:14;;;;;;;;;;;6.90;99.90;;;;;;4940547;29;19927;-65
2023/02/23 07:34:41;;;;;;;;;;;7.00;99.90;;;;;;4937907;29;19934;-65
2023/02/23 07:37:12;;;;;;;;;;;7.00;99.90;;;;;;4942693;29;19927;-66
2023/02/23 07:39:44;;;;;;;;;;;7.10;99.90;;;;;;4937815;29;19927;-66
2023/02/23 07:42:16;;;;;;;;;;;7.10;99.90;;;;;;4951162;29;19931;-66
2023/02/23 07:44:48;;;;;;;;;;;7.10;99.90;;;;;;4943994;28;20331;-65
2023/02/23 07:47:21;;;;;;;;;;;7.10;99.90;;;;;;4936279;29;20399;-65
2023/02/23 07:49:48;;;;;;;;;;;7.10;99.90;;;;;;4938213;29;20414;-67
2023/02/23 07:52:20;;;;;;;;;;;7.10;99.90;;;;;;4943777;29;20007;-66
2023/02/23 07:54:52;;;;;;;;;;;7.10;99.90;;;;;;4926683;29;19931;-65
2023/02/23 07:57:24;;;;;;;;;;;7.10;99.90;;;;;;4936244;29;20025;-65
2023/02/23 07:59:56;;;;;;;;;;;7.20;99.90;;;;;;4948214;29;19926;-65
2023/02/23 08:02:38;;;;;;;;;;;7.20;99.90;;;;;;4937111;29;19931;-65
2023/02/23 08:05:10;;;;;;;;;;;7.20;99.90;;;;;;4942397;29;19950;-66
2023/02/23 08:07:42;;;;;;;;;;;7.30;99.90;;;;;;4943206;29;19938;-65
2023/02/23 08:10:09;;;;;;;;;;;7.30;99.90;;;;;;4947328;29;20442;-67
2023/02/23 08:12:41;;;;;;;;;;;7.30;99.90;;;;;;4937053;29;19927;-65
2023/02/23 08:15:08;;;;;;;;;;;7.30;99.90;;;;;;4943897;29;19927;-65
2023/02/23 08:17:40;;;;;;;;;;;7.30;99.90;;;;;;4942350;29;20001;-65
2023/02/23 08:20:12;;;;;;;;;;;7.30;99.90;;;;;;4936586;29;19946;-65
2023/02/23 08:22:43;;;;;;;;;;;7.40;99.90;;;;;;4942429;29;19934;-65
2023/02/23 08:25:15;;;;;;;;;;;7.40;99.90;;;;;;4938090;29;19926;-65
2023/02/23 08:27:50;;;;;;;;;;;7.50;99.90;;;;;;4940674;29;20021;-65
2023/02/23 08:30:23;;;;;;;;;;;7.60;99.90;;;;;;4944194;29;19931;-65
2023/02/23 08:32:54;;;;;;;;;;;7.60;99.90;;;;;;4948849;29;19930;-65
2023/02/23 08:35:27;;;;;;;;;;;7.70;99.90;;;;;;4936291;29;19931;-65
2023/02/23 08:37:58;;;;;;;;;;;7.80;99.90;;;;;;4942884;29;19933;-65
2023/02/23 08:40:30;;;;;;;;;;;7.80;99.90;;;;;;4937692;29;19940;-65
2023/02/23 08:42:57;;;;;;;;;;;7.90;99.90;;;;;;4937039;29;19933;-64
2023/02/23 08:45:29;;;;;;;;;;;8.00;99.90;;;;;;4940629;29;19931;-65
2023/02/23 08:48:00;;;;;;;;;;;8.10;99.90;;;;;;4938866;29;20407;-66
2023/02/23 08:50:32;;;;;;;;;;;8.10;99.90;;;;;;4938939;29;19931;-65
2023/02/23 08:53:05;;;;;;;;;;;8.20;99.90;;;;;;4940337;29;19933;-65
2023/02/23 08:55:38;;;;;;;;;;;8.20;99.90;;;;;;4943498;28;20121;-65
2023/02/23 08:58:10;;;;;;;;;;;8.30;99.90;;;;;;4935896;29;19938;-65
2023/02/23 09:00:37;;;;;;;;;;;8.30;99.90;;;;;;4941824;28;19937;-65
2023/02/23 09:03:09;;;;;;;;;;;8.30;99.90;;;;;;4938276;29;19934;-65
2023/02/23 09:05:40;;;;;;;;;;;8.40;99.90;;;;;;4935660;29;20463;-65
2023/02/23 09:08:12;;;;;;;;;;;8.40;99.90;;;;;;4941610;29;20030;-66
2023/02/23 09:10:44;;;;;;;;;;;8.50;99.90;;;;;;4941249;29;20307;-66
2023/02/23 09:13:16;;;;;;;;;;;8.50;99.90;;;;;;4946782;29;19985;-65
2023/02/23 09:15:48;;;;;;;;;;;8.60;99.90;;;;;;4947508;29;19931;-65
2023/02/23 09:18:22;;;;;;;;;;;8.60;99.90;;;;;;4947250;28;19938;-65
2023/02/23 09:20:54;;;;;;;;;;;8.70;99.90;;;;;;4942075;29;19974;-66
2023/02/23 09:23:23;;;;;;;;;;;8.70;99.90;;;;;;4946807;29;19930;-65
2023/02/23 09:25:54;;;;;;;;;;;8.70;99.90;;;;;;4944368;29;19927;-65
2023/02/23 09:28:29;;;;;;;;;;;8.80;99.90;;;;;;4938409;29;19931;-66
2023/02/23 09:31:08;;;;;;;;;;;8.80;99.90;;;;;;4945381;29;19930;-65
2023/02/23 09:33:40;;;;;;;;;;;8.80;99.90;;;;;;4939184;29;20069;-65
2023/02/23 09:36:15;;;;;;;;;;;8.80;99.90;;;;;;4942889;29;19926;-66
2023/02/23 09:38:42;;;;;;;;;;;8.80;99.90;;;;;;4949418;29;19926;-66
2023/02/23 09:41:23;;;;;;;;;;;8.80;99.90;;;;;;4948122;29;19935;-66
2023/02/23 09:43:58;;;;;;;;;;;8.80;99.90;;;;;;4944576;29;19934;-67
2023/02/23 09:46:55;;;;;;;;;;;8.90;99.90;;;;;;4945812;29;19927;-66
2023/02/23 09:49:32;;;;;;;;;;;8.90;99.90;;;;;;4918730;29;19938;-65
2023/02/23 09:52:00;;;;;;;;;;;8.90;99.90;;;;;;4939201;29;19950;-65
2023/02/23 09:54:33;;;;;;;;;;;8.90;99.90;;;;;;4943988;29;19981;-65
2023/02/23 09:57:09;;;;;;;;;;;9.00;99.90;;;;;;4938117;29;19958;-65
2023/02/23 09:59:38;;;;;;;;;;;9.00;99.90;;;;;;4939310;29;19930;-65
2023/02/23 10:02:15;;;;;;;;;;;9.00;99.90;;;;;;4945086;29;19930;-66
2023/02/23 10:04:47;;;;;;;;;;;9.00;99.90;;;;;;4940371;29;19933;-66
2023/02/23 10:07:38;;;;;;;;;;;9.10;99.90;;;;;;4939387;29;19934;-66
2023/02/23 10:10:22;;;;;;;;;;;9.10;99.90;;;;;;4934673;29;19930;-65
2023/02/23 10:12:54;;;;;;;;;;;9.10;99.90;;;;;;4946711;29;20396;-65
2023/02/23 10:15:44;;;;;;;;;;;9.20;99.90;;;;;;4952000;29;19973;-66
2023/02/23 10:18:11;;;;;;;;;;;9.20;99.90;;;;;;4944367;29;19930;-66
2023/02/23 10:20:56;;;;;;;;;;;9.30;99.90;;;;;;4939322;28;19933;-66
2023/02/23 10:23:37;;;;;;;;;;;9.40;99.90;;;;;;4946584;29;19986;-65
2023/02/23 10:26:14;;;;;;;;;;;9.50;99.90;;;;;;4945744;29;19931;-66
2023/02/23 10:28:46;;;;;;;;;;;9.60;99.90;;;;;;4929978;29;19982;-66
2023/02/23 10:31:38;;;;;;;;;;;9.70;99.90;;;;;;4942412;29;19930;-65
2023/02/23 10:34:12;;;;;;;;;;;9.80;99.90;;;;;;4940829;29;19927;-65
2023/02/23 10:36:50;;;;;;;;;;;9.90;99.90;;;;;;4936961;29;19991;-65
2023/02/23 10:39:22;;;;;;;;;;;9.90;99.90;;;;;;4947933;29;20826;-65
2023/02/23 10:41:55;;;;;;;;;;;10.00;99.90;;;;;;4941623;29;19930;-66
2023/02/23 10:44:27;;;;;;;;;;;10.00;99.90;;;;;;4939727;29;20022;-64
2023/02/23 10:47:07;;;;;;;;;;;10.00;99.90;;;;;;4942387;29;19981;-64
2023/02/23 10:49:43;;;;;;;;;;;10.00;99.90;;;;;;4950468;29;19993;-66
2023/02/23 10:52:21;;;;;;;;;;;9.80;99.90;;;;;;4938292;29;19956;-65
2023/02/23 10:54:50;;;;;;;;;;;9.70;99.90;;;;;;4941877;29;19983;-65
2023/02/23 10:57:28;;;;;;;;;;;9.70;99.90;;;;;;4940643;29;19934;-65
2023/02/23 11:00:03;;;;;;;;;;;9.70;99.90;;;;;;4937122;29;19926;-65
2023/02/23 11:02:29;;;;;;;;;;;9.70;99.90;;;;;;4944097;28;19987;-66
2023/02/23 11:05:02;;;;;;;;;;;9.80;99.90;;;;;;4951412;29;19930;-65
2023/02/23 11:07:34;;;;;;;;;;;9.90;99.90;;;;;;4941214;29;19974;-65
2023/02/23 11:10:22;;;;;;;;;;;9.90;99.90;;;;;;4942217;29;19927;-66
2023/02/23 11:12:54;;;;;;;;;;;10.00;99.90;;;;;;4943879;29;20018;-65
2023/02/23 11:15:28;;;;;;;;;;;10.00;99.90;;;;;;4942112;29;19927;-65
2023/02/23 11:18:02;;;;;;;;;;;10.00;99.90;;;;;;4941764;29;19927;-65
2023/02/23 11:20:38;;;;;;;;;;;10.10;99.90;;;;;;4941095;29;19931;-65
2023/02/23 11:23:19;;;;;;;;;;;10.20;99.90;;;;;;4937411;29;20281;-67
2023/02/23 11:25:46;;;;;;;;;;;10.30;99.90;;;;;;4944601;29;19927;-65
2023/02/23 11:28:20;;;;;;;;;;;10.30;99.90;;;;;;4946369;29;19994;-65
2023/02/23 11:30:52;;;;;;;;;;;10.30;99.90;;;;;;4944315;29;19955;-65
2023/02/23 11:33:28;;;;;;;;;;;10.40;99.90;;;;;;4942779;29;19927;-65
2023/02/23 11:36:19;;;;;;;;;;;10.50;99.90;;;;;;4938551;29;19927;-66
2023/02/23 11:39:00;;;;;;;;;;;10.50;99.90;;;;;;4925734;29;20352;-65
2023/02/23 11:41:30;;;;;;;;;;;10.60;99.90;;;;;;4942462;29;20017;-65
2023/02/23 11:44:03;;;;;;;;;;;10.60;99.90;;;;;;4923189;29;19926;-65
2023/02/23 11:46:36;;;;;;;;;;;10.60;99.90;;;;;;4943547;29;19993;-65
2023/02/23 11:49:13;;;;;;;;;;;10.60;99.90;;;;;;4944199;28;19934;-65
2023/02/23 11:51:47;;;;;;;;;;;10.60;99.90;;;;;;4945020;29;19982;-65
2023/02/23 11:54:27;;;;;;;;;;;10.60;99.90;;;;;;4941421;29;19927;-67
2023/02/23 11:57:01;;;;;;;;;;;10.60;99.90;;;;;;4944344;29;19926;-65
2023/02/23 11:59:37;;;;;;;;;;;10.60;99.90;;;;;;4936662;29;19931;-65
2023/02/23 12:02:14;;;;;;;;;;;10.60;99.90;;;;;;4937613;29;19927;-65
2023/02/23 12:04:46;;;;;;;;;;;10.60;99.90;;;;;;4946144;29;19927;-65
2023/02/23 12:07:43;;;;;;;;;;;10.70;99.90;;;;;;4935478;29;19927;-65
2023/02/23 12:10:23;;;;;;;;;;;10.80;99.90;;;;;;4944642;29;19931;-65
2023/02/23 12:13:01;;;;;;;;;;;10.80;99.90;;;;;;4949294;29;19981;-65
2023/02/23 12:15:36;;;;;;;;;;;10.80;99.90;;;;;;4937113;29;19970;-65
2023/02/23 12:18:24;;;;;;;;;;;10.90;99.90;;;;;;4941264;29;20021;-66
2023/02/23 12:20:53;;;;;;;;;;;11.00;99.90;;;;;;4936707;29;20367;-65
2023/02/23 12:23:29;;;;;;;;;;;11.00;99.90;;;;;;4934807;29;19931;-65
2023/02/23 12:26:08;;;;;;;;;;;11.10;99.90;;;;;;4944821;29;19931;-65
2023/02/23 12:28:52;;;;;;;;;;;11.10;99.90;;;;;;4945789;29;20553;-65
2023/02/23 12:31:57;;;;;;;;;;;11.20;99.90;;;;;;4933518;29;19930;-65
2023/02/23 12:34:26;;;;;;;;;;;11.30;99.90;;;;;;4916283;29;19927;-64
2023/02/23 12:37:06;;;;;;;;;;;11.40;99.90;;;;;;4942571;29;19934;-65
2023/02/23 12:39:40;;;;;;;;;;;11.50;99.90;;;;;;4937680;28;20288;-65
2023/02/23 12:42:15;;;;;;;;;;;11.60;99.90;;;;;;4940155;29;20387;-65
2023/02/23 12:44:56;;;;;;;;;;;11.70;99.90;;;;;;4945730;28;19926;-65
2023/02/23 12:47:50;;;;;;;;;;;11.70;99.90;;;;;;4951601;29;19937;-65
2023/02/23 12:50:25;;;;;;;;;;;11.80;99.90;;;;;;4947054;29;19927;-65
2023/02/23 12:53:00;;;;;;;;;;;11.90;99.90;;;;;;4951052;29;19931;-66
2023/02/23 12:55:37;;;;;;;;;;;11.90;99.90;;;;;;4940631;29;20024;-65
2023/02/23 12:58:18;;;;;;;;;;;11.90;99.90;;;;;;4947387;29;19938;-65
2023/02/23 13:00:57;;;;;;;;;;;11.90;99.90;;;;;;4939224;29;19926;-65
2023/02/23 13:03:36;;;;;;;;;;;11.90;99.90;;;;;;4950472;29;20419;-65
2023/02/23 13:06:18;;;;;;;;;;;11.90;99.90;;;;;;4944604;29;19994;-65
2023/02/23 13:09:02;;;;;;;;;;;11.90;99.90;;;;;;4937593;29;19927;-66
2023/02/23 13:11:34;;;;;;;;;;;11.90;99.90;;;;;;4945664;28;20386;-65
2023/02/23 13:14:16;;;;;;;;;;;11.90;99.90;;;;;;4943863;29;19930;-65
2023/02/23 13:17:04;;;;;;;;;;;11.80;99.90;;;;;;4935196;29;20314;-66
2023/02/23 13:19:41;;;;;;;;;;;11.90;99.90;;;;;;4941732;29;20380;-65
2023/02/23 13:22:23;;;;;;;;;;;11.90;99.90;;;;;;4946977;29;19938;-65
2023/02/23 13:24:51;;;;;;;;;;;11.90;99.90;;;;;;4947093;29;20396;-65
2023/02/23 13:27:34;;;;;;;;;;;11.90;99.90;;;;;;4941592;29;20740;-66
2023/02/23 13:30:10;;;;;;;;;;;11.90;99.90;;;;;;4955343;28;19927;-65
2023/02/23 13:32:41;;;;;;;;;;;11.90;99.90;;;;;;4944746;29;20343;-67
2023/02/23 13:35:15;;;;;;;;;;;11.90;99.90;;;;;;4945669;29;19965;-65
2023/02/23 13:37:47;;;;;;;;;;;11.90;99.90;;;;;;4948253;28;20048;-67
2023/02/23 13:40:35;;;;;;;;;;;11.90;99.90;;;;;;4941787;29;19949;-65
2023/02/23 13:43:27;;;;;;;;;;;12.00;99.90;;;;;;4945050;29;20436;-66
2023/02/23 13:46:13;;;;;;;;;;;12.10;99.90;;;;;;4940630;29;19938;-65
2023/02/23 13:48:56;;;;;;;;;;;12.10;99.90;;;;;;4949391;29;20414;-65
2023/02/23 13:51:31;;;;;;;;;;;12.10;99.90;;;;;;4944025;29;19985;-65
2023/02/23 13:54:06;;;;;;;;;;;12.20;99.90;;;;;;4953722;28;19986;-67
2023/02/23 13:56:42;;;;;;;;;;;12.40;99.90;;;;;;4951360;28;20519;-66
2023/02/23 13:59:37;;;;;;;;;;;12.50;99.90;;;;;;4945090;29;19957;-66
2023/02/23 14:02:22;;;;;;;;;;;12.60;99.90;;;;;;4941827;29;19927;-66
2023/02/23 14:05:12;;;;;;;;;;;12.70;99.90;;;;;;4944638;29;20594;-66
2023/02/23 14:07:46;;;;;;;;;;;12.80;99.90;;;;;;4944593;29;19978;-66
2023/02/23 14:10:20;;;;;;;;;;;12.80;99.90;;;;;;4937688;29;20372;-65
2023/02/23 14:13:16;;;;;;;;;;;12.70;99.90;;;;;;4941811;29;20338;-65
2023/02/23 14:15:52;;;;;;;;;;;12.70;99.90;;;;;;4940466;29;19931;-65
2023/02/23 14:18:28;;;;;;;;;;;12.80;99.90;;;;;;4938730;29;20333;-65
2023/02/23 14:21:18;;;;;;;;;;;12.80;99.90;;;;;;4946230;29;19926;-65
2023/02/23 14:23:52;;;;;;;;;;;12.80;99.90;;;;;;4930570;29;20319;-65
2023/02/23 14:26:27;;;;;;;;;;;12.80;99.90;;;;;;4937881;29;19933;-65
2023/02/23 14:29:17;;;;;;;;;;;12.80;99.90;;;;;;4943775;28;19931;-65
2023/02/23 14:32:08;;;;;;;;;;;12.80;99.90;;;;;;4938958;28;20311;-65
2023/02/23 14:34:43;;;;;;;;;;;12.70;99.90;;;;;;4944144;29;19927;-65
2023/02/23 14:37:23;;;;;;;;;;;12.60;99.90;;;;;;4942858;29;20458;-65
2023/02/23 14:39:59;;;;;;;;;;;12.40;99.90;;;;;;4936851;28;19968;-65
2023/02/23 14:42:34;;;;;;;;;;;12.40;99.90;;;;;;4946772;29;19930;-66
2023/02/23 14:45:12;;;;;;;;;;;12.40;99.90;;;;;;4945969;29;20300;-65
2023/02/23 14:47:45;;;;;;;;;;;12.40;99.90;;;;;;4937355;29;19974;-65
2023/02/23 14:50:22;;;;;;;;;;;12.40;99.90;;;;;;4941864;29;19926;-65
2023/02/23 14:52:50;;;;;;;;;;;12.60;99.90;;;;;;4944984;29;19930;-66
2023/02/23 14:55:26;;;;;;;;;;;12.80;99.90;;;;;;4945871;29;19931;-66
2023/02/23 14:57:59;;;;;;;;;;;13.00;99.90;;;;;;4947745;29;20459;-64
2023/02/23 15:00:32;;;;;;;;;;;13.20;99.90;;;;;;4943280;29;19927;-65
2023/02/23 15:03:00;;;;;;;;;;;13.30;99.90;;;;;;4936646;29;19933;-66
2023/02/23 15:05:34;;;;;;;;;;;13.40;99.90;;;;;;4943953;29;19938;-66
2023/02/23 15:08:04;;;;;;;;;;;13.60;99.90;;;;;;4946264;28;19938;-67
2023/02/23 15:10:42;;;;;;;;;;;13.60;99.90;;;;;;4941847;29;19926;-66
2023/02/23 15:13:26;;;;;;;;;;;13.70;99.90;;;;;;4941660;29;19927;-67
2023/02/23 15:15:53;;;;;;;;;;;13.80;99.90;;;;;;4943629;29;19934;-65
2023/02/23 15:18:35;;;;;;;;;;;13.80;99.90;;;;;;4937270;29;19950;-66
2023/02/23 15:21:09;;;;;;;;;;;13.80;99.90;;;;;;4941323;29;20010;-67
2023/02/23 15:23:43;;;;;;;;;;;13.90;99.90;;;;;;4956227;28;19961;-67
2023/02/23 15:26:25;;;;;;;;;;;13.90;99.90;;;;;;4933472;29;20450;-66
2023/02/23 15:28:52;;;;;;;;;;;13.90;99.90;;;;;;4945400;28;19931;-66
2023/02/23 15:31:28;;;;;;;;;;;13.80;99.90;;;;;;4945480;29;20339;-67
2023/02/23 15:34:00;;;;;;;;;;;13.80;99.90;;;;;;4939490;28;19927;-66
2023/02/23 15:36:33;;;;;;;;;;;13.70;99.90;;;;;;4940448;29;19931;-66
2023/02/23 15:39:06;;;;;;;;;;;13.60;99.90;;;;;;4941430;29;19933;-65
2023/02/23 15:41:38;;;;;;;;;;;13.50;99.90;;;;;;4935807;29;20021;-65
2023/02/23 15:44:13;;;;;;;;;;;13.40;99.90;;;;;;4941416;29;20527;-66
2023/02/23 15:46:48;;;;;;;;;;;13.30;99.90;;;;;;4941539;29;19984;-66
2023/02/23 15:49:23;;;;;;;;;;;13.20;99.90;;;;;;4930485;29;20361;-66
2023/02/23 15:51:58;;;;;;;;;;;13.00;99.90;;;;;;4940064;29;19937;-65
2023/02/23 15:54:34;;;;;;;;;;;12.90;99.90;;;;;;4946996;29;19927;-66
2023/02/23 15:57:12;;;;;;;;;;;12.70;99.90;;;;;;4943885;29;19927;-66
2023/02/23 15:59:46;;;;;;;;;;;12.50;99.90;;;;;;4948173;29;19926;-65
2023/02/23 16:02:19;;;;;;;;;;;12.20;99.90;;;;;;4946770;29;19927;-65
2023/02/23 16:04:52;;;;;;;;;;;12.00;99.90;;;;;;4946742;29;19931;-65
2023/02/23 16:07:25;;;;;;;;;;;11.80;99.90;;;;;;4941457;29;19973;-65
2023/02/23 16:10:17;;;;;;;;;;;11.60;99.90;;;;;;4939488;29;19934;-65
2023/02/23 16:12:46;;;;;;;;;;;11.40;99.90;;;;;;4935507;29;20403;-66
2023/02/23 16:15:25;;;;;;;;;;;11.30;99.90;;;;;;4940835;29;19937;-66
2023/02/23 16:18:05;;;;;;;;;;;11.10;99.90;;;;;;4944409;29;19934;-66
2023/02/23 16:20:41;;;;;;;;;;;11.00;99.90;;;;;;4935432;29;19926;-65
2023/02/23 16:23:19;;;;;;;;;;;10.90;99.90;;;;;;4939312;29;19930;-65
2023/02/23 16:26:05;;;;;;;;;;;10.80;99.90;;;;;;4946306;29;20351;-65
2023/02/23 16:28:40;;;;;;;;;;;10.70;99.90;;;;;;4937247;29;19930;-65